Time,TemperatureF,DewpointF,PressureIn,WindDirection,WindDirectionDegrees,WindSpeedMPH,WindSpeedGustMPH,Humidity,HourlyPrecipIn,Conditions,Clouds,dailyrainin,SoftwareType,DateUTC
2013-02-26 00:03:00,19.9,15.9,30.08,SW,226,0.0,0.0,84,0.00,,,0.00,VWS V14.01,2013-02-26 06:03:00,
2013-02-26 00:09:00,19.9,15.9,30.07,SW,226,0.0,0.0,84,0.00,,,0.00,VWS V14.01,2013-02-26 06:09:00,
2013-02-26 00:14:00,20.1,16.0,30.08,SW,226,0.0,0.0,84,0.00,,,0.00,VWS V14.01,2013-02-26 06:14:00,
2013-02-26 00:19:00,20.2,16.1,30.08,SW,227,0.0,0.0,84,0.00,,,0.00,VWS V14.01,2013-02-26 06:19:00,
2013-02-26 00:24:00,20.2,16.1,30.08,SW,226,0.0,0.0,84,0.00,,,0.00,VWS V14.01,2013-02-26 06:24:00,
2013-02-26 00:29:00,20.3,15.7,30.08,SW,227,0.0,0.0,82,0.00,,,0.00,VWS V14.01,2013-02-26 06:29:00,
2013-02-26 00:34:00,20.0,15.1,30.08,SW,227,0.0,0.0,81,0.00,,,0.00,VWS V14.01,2013-02-26 06:34:00,
2013-02-26 00:39:00,20.0,15.4,30.08,SW,226,0.0,0.0,82,0.00,,,0.00,VWS V14.01,2013-02-26 06:39:00,
2013-02-26 00:44:00,19.8,15.8,30.07,SW,226,0.0,0.0,84,0.00,,,0.00,VWS V14.01,2013-02-26 06:44:00,
2013-02-26 00:49:00,19.8,16.0,30.08,SW,226,0.0,0.0,85,0.00,,,0.00,VWS V14.01,2013-02-26 06:49:00,
2013-02-26 00:54:00,19.8,15.8,30.07,SW,226,0.0,0.0,84,0.00,,,0.00,VWS V14.01,2013-02-26 06:54:00,
2013-02-26 01:00:00,19.9,16.4,30.07,SW,226,0.0,0.0,86,0.00,,,0.00,VWS V14.01,2013-02-26 07:00:00,
2013-02-26 01:05:00,20.1,16.3,30.08,SW,227,0.0,0.0,85,0.00,,,0.00,VWS V14.01,2013-02-26 07:05:00,
2013-02-26 01:10:00,20.2,16.1,30.08,SW,226,0.0,0.0,84,0.00,,,0.00,VWS V14.01,2013-02-26 07:10:00,
2013-02-26 01:15:00,19.9,15.0,30.08,SW,226,0.0,0.0,81,0.00,,,0.00,VWS V14.01,2013-02-26 07:15:00,
2013-02-26 01:20:00,19.6,15.0,30.08,SW,226,0.0,0.0,82,0.00,,,0.00,VWS V14.01,2013-02-26 07:20:00,
2013-02-26 01:25:00,19.3,15.3,30.07,SW,226,0.0,0.0,84,0.00,,,0.00,VWS V14.01,2013-02-26 07:25:00,
2013-02-26 01:30:00,19.5,16.3,30.07,SW,227,0.0,0.0,87,0.00,,,0.00,VWS V14.01,2013-02-26 07:30:00,
2013-02-26 01:35:00,19.7,16.5,30.07,SW,227,0.0,1.0,87,0.00,,,0.00,VWS V14.01,2013-02-26 07:35:00,
2013-02-26 01:40:00,20.0,16.8,30.07,SW,226,0.0,1.0,87,0.00,,,0.00,VWS V14.01,2013-02-26 07:40:00,
2013-02-26 01:45:00,20.3,17.1,30.07,SW,227,0.0,1.0,87,0.00,,,0.00,VWS V14.01,2013-02-26 07:45:00,
2013-02-26 01:51:00,19.8,15.5,30.06,SW,226,0.0,1.0,83,0.00,,,0.00,VWS V14.01,2013-02-26 07:51:00,
2013-02-26 01:56:00,19.5,15.5,30.07,SW,226,0.0,1.0,84,0.00,,,0.00,VWS V14.01,2013-02-26 07:56:00,
2013-02-26 02:01:00,19.4,15.6,30.06,SW,226,0.0,0.0,85,0.00,,,0.00,VWS V14.01,2013-02-26 08:01:00,
2013-02-26 02:06:00,19.0,15.5,30.05,SW,226,0.0,0.0,86,0.00,,,0.00,VWS V14.01,2013-02-26 08:06:00,
2013-02-26 02:11:00,19.2,16.2,30.05,SW,227,0.0,0.0,88,0.00,,,0.00,VWS V14.01,2013-02-26 08:11:00,
2013-02-26 02:16:00,19.5,16.8,30.06,SW,226,0.0,0.0,89,0.00,,,0.00,VWS V14.01,2013-02-26 08:16:00,
2013-02-26 02:21:00,19.8,17.1,30.06,SW,226,0.0,0.0,89,0.00,,,0.00,VWS V14.01,2013-02-26 08:21:00,
2013-02-26 02:26:00,19.8,16.6,30.06,SW,226,0.0,0.0,87,0.00,,,0.00,VWS V14.01,2013-02-26 08:26:00,
2013-02-26 02:31:00,19.9,16.7,30.06,SW,226,0.0,0.0,87,0.00,,,0.00,VWS V14.01,2013-02-26 08:31:00,
2013-02-26 02:36:00,20.0,16.8,30.05,SW,226,0.0,0.0,87,0.00,,,0.00,VWS V14.01,2013-02-26 08:36:00,
2013-02-26 02:41:00,20.2,17.0,30.06,SW,226,0.0,0.0,87,0.00,,,0.00,VWS V14.01,2013-02-26 08:41:00,
2013-02-26 02:46:00,20.3,16.8,30.06,SW,226,0.0,0.0,86,0.00,,,0.00,VWS V14.01,2013-02-26 08:46:00,
2013-02-26 02:51:00,20.4,16.9,30.06,SW,226,0.0,0.0,86,0.00,,,0.00,VWS V14.01,2013-02-26 08:51:00,
2013-02-26 02:57:00,20.4,16.9,30.05,SW,227,0.0,0.0,86,0.00,,,0.00,VWS V14.01,2013-02-26 08:57:00,
2013-02-26 03:02:00,20.3,16.8,30.05,SW,227,0.0,0.0,86,0.00,,,0.00,VWS V14.01,2013-02-26 09:02:00,
2013-02-26 03:07:00,20.3,16.8,30.05,SW,226,0.0,0.0,86,0.00,,,0.00,VWS V14.01,2013-02-26 09:07:00,
2013-02-26 03:12:00,20.2,16.7,30.05,SW,226,0.0,0.0,86,0.00,,,0.00,VWS V14.01,2013-02-26 09:12:00,
2013-02-26 03:17:00,20.1,16.9,30.04,SW,226,0.0,0.0,87,0.00,,,0.00,VWS V14.01,2013-02-26 09:17:00,
2013-02-26 03:22:00,20.1,17.1,30.05,SW,227,0.0,0.0,88,0.00,,,0.00,VWS V14.01,2013-02-26 09:22:00,
2013-02-26 03:27:00,20.1,17.1,30.05,SW,226,0.0,0.0,88,0.00,,,0.00,VWS V14.01,2013-02-26 09:27:00,
2013-02-26 03:32:00,20.1,17.1,30.05,SW,226,0.0,0.0,88,0.00,,,0.00,VWS V14.01,2013-02-26 09:32:00,
2013-02-26 03:37:00,20.0,16.8,30.05,SW,226,0.0,1.0,87,0.00,,,0.00,VWS V14.01,2013-02-26 09:37:00,
2013-02-26 03:42:00,20.1,16.9,30.05,SW,226,0.0,1.0,87,0.00,,,0.00,VWS V14.01,2013-02-26 09:42:00,
2013-02-26 03:47:00,20.1,16.6,30.05,SW,226,0.0,1.0,86,0.00,,,0.00,VWS V14.01,2013-02-26 09:47:00,
2013-02-26 03:53:00,20.0,16.8,30.04,SW,226,0.0,1.0,87,0.00,,,0.00,VWS V14.01,2013-02-26 09:53:00,
2013-02-26 03:58:00,19.9,16.7,30.04,SW,226,0.0,1.0,87,0.00,,,0.00,VWS V14.01,2013-02-26 09:58:00,
2013-02-26 04:03:00,19.8,16.8,30.05,SW,227,0.0,0.0,88,0.00,,,0.00,VWS V14.01,2013-02-26 10:03:00,
2013-02-26 04:08:00,19.9,16.9,30.04,SW,227,0.0,0.0,88,0.00,,,0.00,VWS V14.01,2013-02-26 10:08:00,
2013-02-26 04:13:00,20.0,17.0,30.04,SW,226,0.0,0.0,88,0.00,,,0.00,VWS V14.01,2013-02-26 10:13:00,
2013-02-26 04:18:00,20.0,17.0,30.04,SW,227,0.0,0.0,88,0.00,,,0.00,VWS V14.01,2013-02-26 10:18:00,
2013-02-26 04:23:00,20.0,17.3,30.03,SW,228,0.0,1.0,89,0.00,,,0.00,VWS V14.01,2013-02-26 10:23:00,
2013-02-26 04:28:00,20.0,17.3,30.03,SW,228,0.0,3.0,89,0.00,,,0.00,VWS V14.01,2013-02-26 10:28:00,
2013-02-26 04:33:00,20.1,17.6,30.03,NNW,340,2.0,5.0,90,0.00,,,0.00,VWS V14.01,2013-02-26 10:33:00,
2013-02-26 04:38:00,20.2,17.5,30.02,NNW,342,0.0,5.0,89,0.00,,,0.00,VWS V14.01,2013-02-26 10:38:00,
2013-02-26 04:44:00,20.1,17.4,30.03,North,11,0.0,5.0,89,0.00,,,0.00,VWS V14.01,2013-02-26 10:44:00,
2013-02-26 04:49:00,20.0,17.3,30.02,NE,40,2.0,5.0,89,0.00,,,0.00,VWS V14.01,2013-02-26 10:49:00,
2013-02-26 04:54:00,20.0,17.3,30.02,NE,35,0.0,5.0,89,0.00,,,0.00,VWS V14.01,2013-02-26 10:54:00,
2013-02-26 04:59:00,19.9,17.2,30.02,NNE,33,1.0,5.0,89,0.00,,,0.00,VWS V14.01,2013-02-26 10:59:00,
2013-02-26 05:04:00,19.9,17.2,30.02,NE,34,0.0,3.0,89,0.00,,,0.00,VWS V14.01,2013-02-26 11:04:00,
2013-02-26 05:09:00,19.9,17.2,30.02,NNE,33,0.0,3.0,89,0.00,,,0.00,VWS V14.01,2013-02-26 11:09:00,
2013-02-26 05:14:00,19.8,17.1,30.02,NE,34,0.0,3.0,89,0.00,,,0.00,VWS V14.01,2013-02-26 11:14:00,
2013-02-26 05:19:00,19.9,17.2,30.02,NE,34,0.0,3.0,89,0.00,,,0.00,VWS V14.01,2013-02-26 11:19:00,
2013-02-26 05:24:00,19.9,17.2,30.03,NNE,23,2.0,3.0,89,0.00,,,0.00,VWS V14.01,2013-02-26 11:24:00,
2013-02-26 05:29:00,20.0,17.3,30.02,NNE,23,0.0,3.0,89,0.00,,,0.00,VWS V14.01,2013-02-26 11:29:00,
2013-02-26 05:35:00,20.0,17.3,30.02,NNE,23,0.0,0.0,89,0.00,,,0.00,VWS V14.01,2013-02-26 11:35:00,
2013-02-26 05:40:00,19.9,17.2,30.02,NNE,23,0.0,0.0,89,0.00,,,0.00,VWS V14.01,2013-02-26 11:40:00,
2013-02-26 05:45:00,19.8,16.8,30.01,NNE,23,1.0,3.0,88,0.00,,,0.00,VWS V14.01,2013-02-26 11:45:00,
2013-02-26 05:50:00,19.7,17.0,30.01,NNE,17,0.0,3.0,89,0.00,,,0.00,VWS V14.01,2013-02-26 11:50:00,
2013-02-26 05:55:00,19.7,17.0,30.02,North,4,0.0,3.0,89,0.00,,,0.00,VWS V14.01,2013-02-26 11:55:00,
2013-02-26 06:00:00,19.6,16.9,30.02,North,8,0.0,3.0,89,0.00,,,0.00,VWS V14.01,2013-02-26 12:00:00,
2013-02-26 06:05:00,19.6,16.9,30.02,NNW,330,1.0,3.0,89,0.00,,,0.00,VWS V14.01,2013-02-26 12:05:00,
2013-02-26 06:10:00,19.6,16.9,30.03,NNW,335,0.0,3.0,89,0.00,,,0.00,VWS V14.01,2013-02-26 12:10:00,
2013-02-26 06:15:00,19.7,17.0,30.02,NNW,335,0.0,3.0,89,0.00,,,0.00,VWS V14.01,2013-02-26 12:15:00,
2013-02-26 06:20:00,19.6,16.6,30.02,NNW,335,0.0,3.0,88,0.00,,,0.00,VWS V14.01,2013-02-26 12:20:00,
2013-02-26 06:26:00,19.5,16.5,30.02,NNW,335,0.0,3.0,88,0.00,,,0.00,VWS V14.01,2013-02-26 12:26:00,
2013-02-26 06:31:00,19.5,16.5,30.02,NNW,335,0.0,0.0,88,0.00,,,0.00,VWS V14.01,2013-02-26 12:31:00,
2013-02-26 06:36:00,19.5,16.5,30.02,NNW,335,0.0,0.0,88,0.00,,,0.00,VWS V14.01,2013-02-26 12:36:00,
2013-02-26 06:41:00,19.3,16.3,30.02,NNW,335,0.0,3.0,88,0.00,,,0.00,VWS V14.01,2013-02-26 12:41:00,
2013-02-26 06:46:00,19.3,16.3,30.02,NNW,335,0.0,3.0,88,0.00,,,0.00,VWS V14.01,2013-02-26 12:46:00,
2013-02-26 06:51:00,19.4,16.4,30.02,NNW,335,0.0,3.0,88,0.00,,,0.00,VWS V14.01,2013-02-26 12:51:00,
2013-02-26 06:56:00,19.3,16.3,30.02,NNW,335,0.0,3.0,88,0.00,,,0.00,VWS V14.01,2013-02-26 12:56:00,
2013-02-26 07:01:00,19.3,16.3,30.02,NNW,335,0.0,0.0,88,0.00,,,0.00,VWS V14.01,2013-02-26 13:01:00,
2013-02-26 07:06:00,19.2,16.2,30.02,NNW,334,0.0,1.0,88,0.00,,,0.00,VWS V14.01,2013-02-26 13:06:00,
2013-02-26 07:11:00,19.1,16.1,30.02,East,86,3.0,3.0,88,0.00,,,0.00,VWS V14.01,2013-02-26 13:11:00,
2013-02-26 07:16:00,19.0,16.0,30.02,North,354,0.0,3.0,88,0.00,,,0.00,VWS V14.01,2013-02-26 13:16:00,
2013-02-26 07:21:00,19.1,16.1,30.01,NE,41,0.0,3.0,88,0.00,,,0.00,VWS V14.01,2013-02-26 13:21:00,
2013-02-26 07:27:00,18.9,15.9,30.01,North,4,0.0,3.0,88,0.00,,,0.00,VWS V14.01,2013-02-26 13:27:00,
2013-02-26 07:32:00,18.8,15.8,30.01,NNE,16,2.0,3.0,88,0.00,,,0.00,VWS V14.01,2013-02-26 13:32:00,
2013-02-26 07:37:00,18.6,15.4,30.01,North,10,0.0,3.0,87,0.00,,,0.00,VWS V14.01,2013-02-26 13:37:00,
2013-02-26 07:42:00,18.6,15.6,30.02,North,10,0.0,3.0,88,0.00,,,0.00,VWS V14.01,2013-02-26 13:42:00,
2013-02-26 07:47:00,18.6,15.6,30.02,North,11,0.0,3.0,88,0.00,,,0.00,VWS V14.01,2013-02-26 13:47:00,
2013-02-26 07:52:00,18.7,15.7,30.01,North,10,0.0,3.0,88,0.00,,,0.00,VWS V14.01,2013-02-26 13:52:00,
2013-02-26 07:57:00,18.8,15.8,30.02,North,11,0.0,3.0,88,0.00,,,0.00,VWS V14.01,2013-02-26 13:57:00,
2013-02-26 08:02:00,19.0,16.0,30.01,North,10,0.0,0.0,88,0.00,,,0.00,VWS V14.01,2013-02-26 14:02:00,
2013-02-26 08:07:00,19.1,16.1,30.02,NNE,12,0.0,1.0,88,0.00,,,0.00,VWS V14.01,2013-02-26 14:07:00,
2013-02-26 08:13:00,19.4,16.4,30.01,North,10,0.0,1.0,88,0.00,,,0.00,VWS V14.01,2013-02-26 14:13:00,
2013-02-26 08:18:00,19.7,16.5,30.02,NNE,13,0.0,1.0,87,0.00,,,0.00,VWS V14.01,2013-02-26 14:18:00,
2013-02-26 08:23:00,19.8,16.6,30.02,NNW,335,0.0,2.0,87,0.00,,,0.00,VWS V14.01,2013-02-26 14:23:00,
2013-02-26 08:28:00,20.0,16.8,30.02,NNW,336,0.0,2.0,87,0.00,,,0.00,VWS V14.01,2013-02-26 14:28:00,
2013-02-26 08:33:00,20.3,17.1,30.02,North,359,0.0,5.0,87,0.00,,,0.00,VWS V14.01,2013-02-26 14:33:00,
2013-02-26 08:38:00,20.7,17.5,30.02,North,359,0.0,5.0,87,0.00,,,0.00,VWS V14.01,2013-02-26 14:38:00,
2013-02-26 08:43:00,21.2,17.9,30.02,NW,324,1.0,5.0,87,0.00,,,0.00,VWS V14.01,2013-02-26 14:43:00,
2013-02-26 08:48:00,21.6,18.3,30.02,NNW,348,0.0,5.0,87,0.00,,,0.00,VWS V14.01,2013-02-26 14:48:00,
2013-02-26 08:53:00,22.1,18.6,30.02,WNW,287,0.0,5.0,86,0.00,,,0.00,VWS V14.01,2013-02-26 14:53:00,
2013-02-26 08:58:00,22.6,18.8,30.01,NW,326,0.0,5.0,85,0.00,,,0.00,VWS V14.01,2013-02-26 14:58:00,
2013-02-26 09:03:00,22.7,18.6,30.02,North,354,2.0,4.0,84,0.00,,,0.00,VWS V14.01,2013-02-26 15:03:00,
2013-02-26 09:08:00,22.9,18.8,30.02,NNW,342,0.0,4.0,84,0.00,,,0.00,VWS V14.01,2013-02-26 15:08:00,
2013-02-26 09:13:00,23.2,18.8,30.02,NNW,345,0.0,4.0,83,0.00,,,0.00,VWS V14.01,2013-02-26 15:13:00,
2013-02-26 09:18:00,23.6,19.5,30.02,NNW,345,0.0,4.0,84,0.00,,,0.00,VWS V14.01,2013-02-26 15:18:00,
2013-02-26 09:23:00,24.0,19.9,30.02,WNW,289,0.0,7.0,84,0.00,,,0.00,VWS V14.01,2013-02-26 15:23:00,
2013-02-26 09:28:00,24.5,20.1,30.02,WNW,290,0.0,7.0,83,0.00,,,0.00,VWS V14.01,2013-02-26 15:28:00,
2013-02-26 09:34:00,25.0,20.6,30.02,WNW,290,0.0,0.0,83,0.00,,,0.00,VWS V14.01,2013-02-26 15:34:00,
2013-02-26 09:39:00,25.5,21.1,30.02,NW,311,1.0,1.0,83,0.00,,,0.00,VWS V14.01,2013-02-26 15:39:00,
2013-02-26 09:44:00,26.0,21.3,30.03,NNE,21,0.0,2.0,82,0.00,,,0.00,VWS V14.01,2013-02-26 15:44:00,
2013-02-26 09:49:00,26.6,21.9,30.03,NE,41,2.0,3.0,82,0.00,,,0.00,VWS V14.01,2013-02-26 15:49:00,
2013-02-26 09:54:00,26.9,21.9,30.03,NE,42,0.0,3.0,81,0.00,,,0.00,VWS V14.01,2013-02-26 15:54:00,
2013-02-26 09:59:00,27.2,21.9,30.03,NE,37,0.0,3.0,80,0.00,,,0.00,VWS V14.01,2013-02-26 15:59:00,
2013-02-26 10:04:00,27.5,22.5,30.03,NE,39,0.0,0.0,81,0.00,,,0.00,VWS V14.01,2013-02-26 16:04:00,
2013-02-26 10:09:00,27.7,22.4,30.02,NE,39,1.0,2.0,80,0.00,,,0.00,VWS V14.01,2013-02-26 16:09:00,
2013-02-26 10:14:00,27.8,22.1,30.02,NE,38,0.0,4.0,79,0.00,,,0.00,VWS V14.01,2013-02-26 16:14:00,
2013-02-26 10:19:00,28.0,22.6,30.02,NE,34,0.0,4.0,80,0.00,,,0.00,VWS V14.01,2013-02-26 16:19:00,
2013-02-26 10:24:00,28.3,22.6,30.02,ENE,63,0.0,4.0,79,0.00,,,0.00,VWS V14.01,2013-02-26 16:24:00,
2013-02-26 10:29:00,28.5,22.8,30.02,ENE,62,0.0,4.0,79,0.00,,,0.00,VWS V14.01,2013-02-26 16:29:00,
2013-02-26 10:34:00,28.7,22.7,30.01,NE,44,0.0,2.0,78,0.00,,,0.00,VWS V14.01,2013-02-26 16:34:00,
2013-02-26 10:39:00,28.9,22.9,30.01,NE,42,0.0,2.0,78,0.00,,,0.00,VWS V14.01,2013-02-26 16:39:00,
2013-02-26 10:45:00,29.2,22.9,30.01,ENE,68,0.0,3.0,77,0.00,,,0.00,VWS V14.01,2013-02-26 16:45:00,
2013-02-26 10:50:00,29.5,23.2,30.01,NNE,23,2.0,4.0,77,0.00,,,0.00,VWS V14.01,2013-02-26 16:50:00,
2013-02-26 10:55:00,29.5,23.2,30.01,NNE,26,1.0,5.0,77,0.00,,,0.00,VWS V14.01,2013-02-26 16:55:00,
2013-02-26 11:00:00,29.7,23.4,30.01,North,8,0.0,5.0,77,0.00,,,0.00,VWS V14.01,2013-02-26 17:00:00,
2013-02-26 11:05:00,29.8,23.8,30.01,NNW,345,2.0,3.0,78,0.00,,,0.00,VWS V14.01,2013-02-26 17:05:00,
2013-02-26 11:10:00,30.2,23.9,30.01,NNW,347,0.0,3.0,77,0.00,,,0.00,VWS V14.01,2013-02-26 17:10:00,
2013-02-26 11:15:00,30.4,23.8,30.01,NNW,337,2.0,4.0,76,0.00,,,0.00,VWS V14.01,2013-02-26 17:15:00,
2013-02-26 11:20:00,30.6,24.0,30.01,NNW,342,0.0,4.0,76,0.00,,,0.00,VWS V14.01,2013-02-26 17:20:00,
2013-02-26 11:25:00,30.8,24.1,30.01,NNE,28,0.0,6.0,76,0.00,,,0.00,VWS V14.01,2013-02-26 17:25:00,
2013-02-26 11:30:00,31.1,24.1,30.01,NNW,345,0.0,6.0,75,0.00,,,0.00,VWS V14.01,2013-02-26 17:30:00,
2013-02-26 11:35:00,31.4,24.4,30.01,NNE,20,1.0,5.0,75,0.00,,,0.00,VWS V14.01,2013-02-26 17:35:00,
2013-02-26 11:40:00,31.5,24.2,30.00,NNE,21,0.0,5.0,74,0.00,,,0.00,VWS V14.01,2013-02-26 17:40:00,
2013-02-26 11:45:00,31.7,24.4,30.00,NE,42,2.0,5.0,74,0.00,,,0.00,VWS V14.01,2013-02-26 17:45:00,
2013-02-26 11:50:00,31.9,25.2,30.00,NNE,13,0.0,5.0,76,0.00,,,0.00,VWS V14.01,2013-02-26 17:50:00,
2013-02-26 11:55:00,32.3,25.0,30.00,ENE,62,0.0,5.0,74,0.00,,,0.00,VWS V14.01,2013-02-26 17:55:00,
2013-02-26 12:00:00,32.5,25.1,29.99,East,79,3.0,5.0,74,0.00,,,0.00,VWS V14.01,2013-02-26 18:00:00,
2013-02-26 12:05:00,32.9,25.5,29.99,ENE,77,0.0,0.0,74,0.00,,,0.00,VWS V14.01,2013-02-26 18:05:00,
2013-02-26 12:10:00,33.0,25.0,29.99,NNE,31,1.0,5.0,72,0.00,,,0.00,VWS V14.01,2013-02-26 18:10:00,
2013-02-26 12:15:00,32.9,24.9,29.99,North,8,1.0,8.0,72,0.00,,,0.00,VWS V14.01,2013-02-26 18:15:00,
2013-02-26 12:20:00,32.9,25.2,29.99,NW,326,0.0,8.0,73,0.00,,,0.00,VWS V14.01,2013-02-26 18:20:00,
2013-02-26 12:25:00,33.2,25.5,29.98,NNW,330,0.0,8.0,73,0.00,,,0.00,VWS V14.01,2013-02-26 18:25:00,
2013-02-26 12:30:00,33.6,25.5,29.98,WNW,300,0.0,8.0,72,0.00,,,0.00,VWS V14.01,2013-02-26 18:30:00,
2013-02-26 12:35:00,33.8,25.7,29.98,NNW,341,0.0,4.0,72,0.00,,,0.00,VWS V14.01,2013-02-26 18:35:00,
2013-02-26 12:41:00,34.0,25.9,29.98,ENE,77,2.0,4.0,72,0.00,,,0.00,VWS V14.01,2013-02-26 18:41:00,
2013-02-26 12:46:00,34.0,25.9,29.98,NE,54,0.0,5.0,72,0.00,,,0.00,VWS V14.01,2013-02-26 18:46:00,
2013-02-26 12:51:00,34.0,25.6,29.97,NNE,32,0.0,5.0,71,0.00,,,0.00,VWS V14.01,2013-02-26 18:51:00,
2013-02-26 12:56:00,33.9,25.8,29.97,ENE,57,0.0,5.0,72,0.00,,,0.00,VWS V14.01,2013-02-26 18:56:00,
2013-02-26 13:01:00,34.2,26.1,29.97,NNE,31,0.0,0.0,72,0.00,,,0.00,VWS V14.01,2013-02-26 19:01:00,
2013-02-26 13:06:00,34.6,26.2,29.97,NNW,343,1.0,4.0,71,0.00,,,0.00,VWS V14.01,2013-02-26 19:06:00,
2013-02-26 13:11:00,34.8,26.4,29.97,ENE,69,3.0,4.0,71,0.00,,,0.00,VWS V14.01,2013-02-26 19:11:00,
2013-02-26 13:16:00,34.7,26.3,29.96,NW,318,2.0,4.0,71,0.00,,,0.00,VWS V14.01,2013-02-26 19:16:00,
2013-02-26 13:21:00,34.9,26.1,29.96,NE,37,0.0,4.0,70,0.00,,,0.00,VWS V14.01,2013-02-26 19:21:00,
2013-02-26 13:26:00,34.8,26.0,29.96,ENE,66,1.0,7.0,70,0.00,,,0.00,VWS V14.01,2013-02-26 19:26:00,
2013-02-26 13:31:00,34.8,26.0,29.96,ENE,64,0.0,0.0,70,0.00,,,0.00,VWS V14.01,2013-02-26 19:31:00,
2013-02-26 13:36:00,34.9,26.1,29.96,NE,35,2.0,5.0,70,0.00,,,0.00,VWS V14.01,2013-02-26 19:36:00,
2013-02-26 13:41:00,34.7,25.9,29.96,NE,55,2.0,5.0,70,0.00,,,0.00,VWS V14.01,2013-02-26 19:41:00,
2013-02-26 13:46:00,34.7,26.3,29.95,NE,53,0.0,5.0,71,0.00,,,0.00,VWS V14.01,2013-02-26 19:46:00,
2013-02-26 13:51:00,34.8,26.0,29.95,NNE,33,2.0,7.0,70,0.00,,,0.00,VWS V14.01,2013-02-26 19:51:00,
2013-02-26 13:56:00,35.2,26.8,29.95,East,95,2.0,7.0,71,0.00,,,0.00,VWS V14.01,2013-02-26 19:56:00,
2013-02-26 14:01:00,35.5,26.7,29.94,ENE,63,2.0,2.0,70,0.00,,,0.00,VWS V14.01,2013-02-26 20:01:00,
2013-02-26 14:06:00,35.7,26.9,29.94,NW,305,0.0,7.0,70,0.00,,,0.00,VWS V14.01,2013-02-26 20:06:00,
2013-02-26 14:12:00,35.9,26.7,29.94,NE,50,0.0,7.0,69,0.00,,,0.00,VWS V14.01,2013-02-26 20:12:00,
2013-02-26 14:17:00,36.1,26.9,29.94,NNW,329,1.0,7.0,69,0.00,,,0.00,VWS V14.01,2013-02-26 20:17:00,
2013-02-26 14:22:00,36.0,26.8,29.93,NNE,26,2.0,7.0,69,0.00,,,0.00,VWS V14.01,2013-02-26 20:22:00,
2013-02-26 14:27:00,35.7,26.5,29.93,WNW,300,5.0,9.0,69,0.00,,,0.00,VWS V14.01,2013-02-26 20:27:00,
2013-02-26 14:32:00,35.7,26.9,29.93,NW,317,3.0,6.0,70,0.00,,,0.00,VWS V14.01,2013-02-26 20:32:00,
2013-02-26 14:37:00,35.7,27.2,29.94,NE,51,0.0,6.0,71,0.00,,,0.00,VWS V14.01,2013-02-26 20:37:00,
2013-02-26 14:42:00,35.4,26.6,29.94,East,86,0.0,6.0,70,0.00,,,0.00,VWS V14.01,2013-02-26 20:42:00,
2013-02-26 14:47:00,35.5,27.0,29.94,NE,53,5.0,6.0,71,0.00,,,0.00,VWS V14.01,2013-02-26 20:47:00,
2013-02-26 14:52:00,35.4,27.0,29.93,NNW,340,0.0,8.0,71,0.00,,,0.00,VWS V14.01,2013-02-26 20:52:00,
2013-02-26 14:57:00,35.3,26.5,29.93,NNW,334,1.0,8.0,70,0.00,,,0.00,VWS V14.01,2013-02-26 20:57:00,
2013-02-26 15:03:00,35.1,26.7,29.94,NNW,336,1.0,5.0,71,0.00,,,0.00,VWS V14.01,2013-02-26 21:03:00,
2013-02-26 15:08:00,34.9,26.8,29.94,NE,45,0.0,5.0,72,0.00,,,0.00,VWS V14.01,2013-02-26 21:08:00,
2013-02-26 15:13:00,34.8,26.7,29.94,NE,50,0.0,5.0,72,0.00,,,0.00,VWS V14.01,2013-02-26 21:13:00,
2013-02-26 15:18:00,34.6,26.5,29.94,North,4,0.0,5.0,72,0.00,,,0.00,VWS V14.01,2013-02-26 21:18:00,
2013-02-26 15:23:00,34.6,26.9,29.94,NNE,33,1.0,5.0,73,0.00,,,0.00,VWS V14.01,2013-02-26 21:23:00,
2013-02-26 15:28:00,34.7,26.6,29.94,ENE,68,0.0,5.0,72,0.00,,,0.00,VWS V14.01,2013-02-26 21:28:00,
2013-02-26 15:33:00,34.7,26.6,29.93,NW,312,5.0,6.0,72,0.00,,,0.00,VWS V14.01,2013-02-26 21:33:00,
2013-02-26 15:38:00,34.7,26.6,29.93,NNE,15,3.0,6.0,72,0.00,,,0.00,VWS V14.01,2013-02-26 21:38:00,
2013-02-26 15:43:00,34.8,26.7,29.93,NNE,12,0.0,6.0,72,0.00,,,0.00,VWS V14.01,2013-02-26 21:43:00,
2013-02-26 15:48:00,34.8,26.7,29.93,NNW,330,0.0,6.0,72,0.00,,,0.00,VWS V14.01,2013-02-26 21:48:00,
2013-02-26 15:53:00,35.0,26.9,29.94,North,354,0.0,6.0,72,0.00,,,0.00,VWS V14.01,2013-02-26 21:53:00,
2013-02-26 15:58:00,35.0,26.9,29.94,NE,36,2.0,6.0,72,0.00,,,0.00,VWS V14.01,2013-02-26 21:58:00,
2013-02-26 16:03:00,35.0,26.9,29.94,NNE,14,0.0,3.0,72,0.00,,,0.00,VWS V14.01,2013-02-26 22:03:00,
2013-02-26 16:08:00,35.0,26.6,29.93,WNW,301,0.0,6.0,71,0.00,,,0.00,VWS V14.01,2013-02-26 22:08:00,
2013-02-26 16:14:00,35.1,27.0,29.93,NNW,337,0.0,6.0,72,0.00,,,0.00,VWS V14.01,2013-02-26 22:14:00,
2013-02-26 16:19:00,35.1,26.7,29.93,NNW,339,2.0,6.0,71,0.00,,,0.00,VWS V14.01,2013-02-26 22:19:00,
2013-02-26 16:24:00,35.0,26.6,29.93,NNW,345,2.0,6.0,71,0.00,,,0.00,VWS V14.01,2013-02-26 22:24:00,
2013-02-26 16:29:00,35.0,26.6,29.93,NW,317,0.0,6.0,71,0.00,,,0.00,VWS V14.01,2013-02-26 22:29:00,
2013-02-26 16:34:00,34.8,26.4,29.93,North,359,2.0,6.0,71,0.00,,,0.00,VWS V14.01,2013-02-26 22:34:00,
2013-02-26 16:39:00,34.7,26.6,29.92,North,354,0.0,6.0,72,0.00,,,0.00,VWS V14.01,2013-02-26 22:39:00,
2013-02-26 16:44:00,34.7,26.6,29.93,WNW,294,0.0,6.0,72,0.00,,,0.00,VWS V14.01,2013-02-26 22:44:00,
2013-02-26 16:49:00,34.8,27.0,29.93,NW,310,3.0,6.0,73,0.00,,,0.00,VWS V14.01,2013-02-26 22:49:00,
2013-02-26 16:54:00,34.8,26.7,29.93,NNE,13,0.0,6.0,72,0.00,,,0.00,VWS V14.01,2013-02-26 22:54:00,
2013-02-26 16:59:00,34.8,26.7,29.93,North,359,0.0,6.0,72,0.00,,,0.00,VWS V14.01,2013-02-26 22:59:00,
2013-02-26 17:05:00,34.7,27.0,29.92,NW,318,0.0,7.0,73,0.00,,,0.00,VWS V14.01,2013-02-26 23:05:00,
2013-02-26 17:10:00,34.7,26.6,29.92,NNE,14,1.0,7.0,72,0.00,,,0.00,VWS V14.01,2013-02-26 23:10:00,
2013-02-26 17:15:00,34.6,26.9,29.92,NNW,343,0.0,7.0,73,0.00,,,0.00,VWS V14.01,2013-02-26 23:15:00,
2013-02-26 17:20:00,34.4,26.7,29.92,NW,310,0.0,7.0,73,0.00,,,0.00,VWS V14.01,2013-02-26 23:20:00,
2013-02-26 17:25:00,34.3,26.2,29.92,NW,313,0.0,7.0,72,0.00,,,0.00,VWS V14.01,2013-02-26 23:25:00,
2013-02-26 17:30:00,34.2,26.5,29.92,NW,316,0.0,7.0,73,0.00,,,0.00,VWS V14.01,2013-02-26 23:30:00,
2013-02-26 17:35:00,34.1,26.4,29.92,NW,316,0.0,5.0,73,0.00,,,0.00,VWS V14.01,2013-02-26 23:35:00,
2013-02-26 17:40:00,34.0,26.6,29.92,NNW,338,0.0,5.0,74,0.00,,,0.00,VWS V14.01,2013-02-26 23:40:00,
2013-02-26 17:45:00,33.9,26.2,29.92,NNW,330,0.0,5.0,73,0.00,,,0.00,VWS V14.01,2013-02-26 23:45:00,
2013-02-26 17:50:00,33.8,26.7,29.92,WNW,297,0.0,6.0,75,0.00,,,0.00,VWS V14.01,2013-02-26 23:50:00,
2013-02-26 17:55:00,33.7,26.6,29.93,NNW,343,3.0,6.0,75,0.00,,,0.00,VWS V14.01,2013-02-26 23:55:00,
2013-02-26 18:00:00,33.6,26.5,29.93,WNW,283,0.0,6.0,75,0.00,,,0.00,VWS V14.01,2013-02-27 00:00:00,
2013-02-26 18:05:00,33.5,26.8,29.93,WNW,291,0.0,3.0,76,0.00,,,0.00,VWS V14.01,2013-02-27 00:05:00,
2013-02-26 18:10:00,33.4,26.7,29.93,NNW,334,0.0,5.0,76,0.00,,,0.00,VWS V14.01,2013-02-27 00:10:00,
2013-02-26 18:16:00,33.4,26.7,29.93,NNW,332,1.0,5.0,76,0.00,,,0.00,VWS V14.01,2013-02-27 00:16:00,
2013-02-26 18:21:00,33.4,26.3,29.93,WNW,302,5.0,5.0,75,0.00,,,0.00,VWS V14.01,2013-02-27 00:21:00,
2013-02-26 18:26:00,33.3,26.2,29.93,WNW,299,0.0,5.0,75,0.00,,,0.00,VWS V14.01,2013-02-27 00:26:00,
2013-02-26 18:31:00,33.2,26.1,29.93,NNW,328,0.0,0.0,75,0.00,,,0.00,VWS V14.01,2013-02-27 00:31:00,
2013-02-26 18:36:00,33.2,26.1,29.93,NW,312,2.0,4.0,75,0.00,,,0.00,VWS V14.01,2013-02-27 00:36:00,
2013-02-26 18:41:00,33.1,26.0,29.93,NW,308,0.0,5.0,75,0.00,,,0.00,VWS V14.01,2013-02-27 00:41:00,
2013-02-26 18:46:00,33.0,26.0,29.93,NNW,330,0.0,5.0,75,0.00,,,0.00,VWS V14.01,2013-02-27 00:46:00,
2013-02-26 18:51:00,33.0,26.3,29.93,NW,315,3.0,5.0,76,0.00,,,0.00,VWS V14.01,2013-02-27 00:51:00,
2013-02-26 18:56:00,32.9,25.9,29.93,NNW,341,1.0,5.0,75,0.00,,,0.00,VWS V14.01,2013-02-27 00:56:00,
2013-02-26 19:02:00,32.9,25.9,29.93,NW,323,0.0,2.0,75,0.00,,,0.00,VWS V14.01,2013-02-27 01:02:00,
2013-02-26 19:07:00,32.9,25.9,29.93,NNW,347,2.0,4.0,75,0.00,,,0.00,VWS V14.01,2013-02-27 01:07:00,
2013-02-26 19:12:00,32.8,26.1,29.93,NW,317,0.0,5.0,76,0.00,,,0.00,VWS V14.01,2013-02-27 01:12:00,
2013-02-26 19:17:00,32.8,25.8,29.93,NW,322,0.0,5.0,75,0.00,,,0.00,VWS V14.01,2013-02-27 01:17:00,
2013-02-26 19:22:00,32.8,25.8,29.93,North,8,0.0,5.0,75,0.00,,,0.00,VWS V14.01,2013-02-27 01:22:00,
2013-02-26 19:27:00,32.9,25.9,29.93,NNE,26,0.0,5.0,75,0.00,,,0.00,VWS V14.01,2013-02-27 01:27:00,
2013-02-26 19:32:00,33.0,26.0,29.92,NNW,341,1.0,2.0,75,0.00,,,0.00,VWS V14.01,2013-02-27 01:32:00,
2013-02-26 19:37:00,33.0,26.0,29.92,NW,318,0.0,4.0,75,0.00,,,0.00,VWS V14.01,2013-02-27 01:37:00,
2013-02-26 19:42:00,33.0,26.0,29.92,ENE,71,0.0,4.0,75,0.00,,,0.00,VWS V14.01,2013-02-27 01:42:00,
2013-02-26 19:47:00,33.2,26.1,29.92,NNE,22,0.0,5.0,75,0.00,,,0.00,VWS V14.01,2013-02-27 01:47:00,
2013-02-26 19:52:00,33.3,26.2,29.93,ENE,77,0.0,5.0,75,0.00,,,0.00,VWS V14.01,2013-02-27 01:52:00,
2013-02-26 19:57:00,33.3,26.2,29.93,NE,35,2.0,5.0,75,0.00,,,0.00,VWS V14.01,2013-02-27 01:57:00,
2013-02-26 20:02:00,33.3,26.2,29.93,ENE,62,3.0,4.0,75,0.00,,,0.00,VWS V14.01,2013-02-27 02:02:00,
2013-02-26 20:07:00,33.3,26.2,29.93,NE,37,0.0,5.0,75,0.00,,,0.00,VWS V14.01,2013-02-27 02:07:00,
2013-02-26 20:12:00,33.3,26.6,29.93,NE,35,0.0,5.0,76,0.00,,,0.00,VWS V14.01,2013-02-27 02:12:00,
2013-02-26 20:17:00,33.2,26.5,29.93,ENE,69,3.0,8.0,76,0.00,,,0.00,VWS V14.01,2013-02-27 02:17:00,
2013-02-26 20:22:00,33.2,26.5,29.92,NE,43,2.0,9.0,76,0.00,,,0.00,VWS V14.01,2013-02-27 02:22:00,
2013-02-26 20:28:00,33.1,26.4,29.92,NE,49,4.0,9.0,76,0.00,,,0.00,VWS V14.01,2013-02-27 02:28:00,
2013-02-26 20:33:00,33.1,26.4,29.92,NNE,27,2.0,4.0,76,0.00,,,0.00,VWS V14.01,2013-02-27 02:33:00,
2013-02-26 20:38:00,33.0,26.3,29.92,NNW,331,4.0,7.0,76,0.00,,,0.00,VWS V14.01,2013-02-27 02:38:00,
2013-02-26 20:43:00,33.0,26.3,29.92,NE,46,0.0,7.0,76,0.00,,,0.00,VWS V14.01,2013-02-27 02:43:00,
2013-02-26 20:48:00,33.0,26.3,29.92,South,174,0.0,7.0,76,0.00,,,0.00,VWS V14.01,2013-02-27 02:48:00,
2013-02-26 20:53:00,32.8,26.4,29.92,ENE,72,0.0,7.0,77,0.00,,,0.00,VWS V14.01,2013-02-27 02:53:00,
2013-02-26 20:58:00,32.6,26.2,29.92,NNE,30,4.0,7.0,77,0.00,,,0.00,VWS V14.01,2013-02-27 02:58:00,
2013-02-26 21:03:00,32.5,26.1,29.92,NNE,30,0.0,8.0,77,0.00,,,0.00,VWS V14.01,2013-02-27 03:03:00,
2013-02-26 21:08:00,32.4,26.0,29.92,NE,45,3.0,8.0,77,0.00,,,0.00,VWS V14.01,2013-02-27 03:08:00,
2013-02-26 21:13:00,32.3,25.9,29.92,NE,45,0.0,8.0,77,0.00,,,0.00,VWS V14.01,2013-02-27 03:13:00,
2013-02-26 21:18:00,32.1,26.0,29.92,ENE,66,1.0,8.0,78,0.00,,,0.00,VWS V14.01,2013-02-27 03:18:00,
2013-02-26 21:24:00,32.0,25.9,29.92,NE,42,3.0,8.0,78,0.00,,,0.00,VWS V14.01,2013-02-27 03:24:00,
2013-02-26 21:29:00,31.8,25.7,29.92,ENE,64,0.0,8.0,78,0.00,,,0.00,VWS V14.01,2013-02-27 03:29:00,
2013-02-26 21:34:00,31.7,25.6,29.92,NNE,22,3.0,4.0,78,0.00,,,0.00,VWS V14.01,2013-02-27 03:34:00,
2013-02-26 21:39:00,31.6,25.5,29.92,NE,42,0.0,4.0,78,0.00,,,0.00,VWS V14.01,2013-02-27 03:39:00,
2013-02-26 21:44:00,31.5,25.4,29.92,NE,35,0.0,6.0,78,0.00,,,0.00,VWS V14.01,2013-02-27 03:44:00,
2013-02-26 21:49:00,31.4,25.4,29.92,East,100,3.0,6.0,78,0.00,,,0.00,VWS V14.01,2013-02-27 03:49:00,
2013-02-26 21:54:00,31.4,25.4,29.92,NNE,31,4.0,7.0,78,0.00,,,0.00,VWS V14.01,2013-02-27 03:54:00,
2013-02-26 21:59:00,31.2,25.1,29.92,NE,34,1.0,7.0,78,0.00,,,0.00,VWS V14.01,2013-02-27 03:59:00,
2013-02-26 22:04:00,31.2,25.1,29.92,ENE,62,0.0,7.0,78,0.00,,,0.00,VWS V14.01,2013-02-27 04:04:00,
2013-02-26 22:09:00,31.1,25.0,29.92,SSW,210,0.0,7.0,78,0.00,,,0.00,VWS V14.01,2013-02-27 04:09:00,
2013-02-26 22:14:00,31.1,25.0,29.93,ENE,64,0.0,7.0,78,0.00,,,0.00,VWS V14.01,2013-02-27 04:14:00,
2013-02-26 22:19:00,31.0,25.0,29.92,NE,37,0.0,7.0,78,0.00,,,0.00,VWS V14.01,2013-02-27 04:19:00,
2013-02-26 22:24:00,30.9,24.9,29.92,NE,46,1.0,7.0,78,0.00,,,0.00,VWS V14.01,2013-02-27 04:24:00,
2013-02-26 22:29:00,30.9,24.5,29.92,NE,48,3.0,7.0,77,0.00,,,0.00,VWS V14.01,2013-02-27 04:29:00,
2013-02-26 22:34:00,30.8,24.5,29.92,NNE,23,2.0,4.0,77,0.00,,,0.00,VWS V14.01,2013-02-27 04:34:00,
2013-02-26 22:39:00,30.7,24.7,29.92,North,4,1.0,5.0,78,0.00,,,0.00,VWS V14.01,2013-02-27 04:39:00,
2013-02-26 22:44:00,30.5,24.5,29.92,North,8,0.0,5.0,78,0.00,,,0.00,VWS V14.01,2013-02-27 04:44:00,
2013-02-26 22:50:00,30.5,24.2,29.92,North,354,0.0,5.0,77,0.00,,,0.00,VWS V14.01,2013-02-27 04:50:00,
2013-02-26 22:55:00,30.4,24.1,29.92,NE,44,2.0,6.0,77,0.00,,,0.00,VWS V14.01,2013-02-27 04:55:00,
2013-02-26 23:00:00,30.4,24.1,29.92,ENE,68,2.0,6.0,77,0.00,,,0.00,VWS V14.01,2013-02-27 05:00:00,
2013-02-26 23:05:00,30.3,24.0,29.92,North,4,1.0,4.0,77,0.00,,,0.00,VWS V14.01,2013-02-27 05:05:00,
2013-02-26 23:10:00,30.3,24.0,29.92,NE,42,2.0,5.0,77,0.00,,,0.00,VWS V14.01,2013-02-27 05:10:00,
2013-02-26 23:15:00,30.2,23.9,29.91,NE,53,2.0,5.0,77,0.00,,,0.00,VWS V14.01,2013-02-27 05:15:00,
2013-02-26 23:21:00,30.2,23.9,29.91,NE,34,1.0,5.0,77,0.00,,,0.00,VWS V14.01,2013-02-27 05:21:00,
2013-02-26 23:26:00,30.1,23.8,29.91,NNE,33,0.0,5.0,77,0.00,,,0.00,VWS V14.01,2013-02-27 05:26:00,
2013-02-26 23:31:00,30.0,23.7,29.92,ENE,60,3.0,3.0,77,0.00,,,0.00,VWS V14.01,2013-02-27 05:31:00,
2013-02-26 23:36:00,29.9,23.6,29.92,NNW,348,0.0,3.0,77,0.00,,,0.00,VWS V14.01,2013-02-27 05:36:00,
2013-02-26 23:41:00,29.8,23.8,29.92,ENE,73,1.0,4.0,78,0.00,,,0.00,VWS V14.01,2013-02-27 05:41:00,
2013-02-26 23:46:00,29.7,23.4,29.92,NE,35,0.0,5.0,77,0.00,,,0.00,VWS V14.01,2013-02-27 05:46:00,
2013-02-26 23:51:00,29.6,23.6,29.92,ENE,77,0.0,6.0,78,0.00,,,0.00,VWS V14.01,2013-02-27 05:51:00,
2013-02-26 23:56:00,29.5,23.5,29.91,NNE,23,0.0,6.0,78,0.00,,,0.00,VWS V14.01,2013-02-27 05:56:00,